Time;durP1;ratioP1;P1;durP2;ratioP2;P2;SDS_P1;SDS_P2;PMS_P1;PMS_P2;Temp;Humidity;BMP_temperature;BMP_pressure;BME280_temperature;BME280_humidity;BME280_pressure;Samples;Min_cycle;Max_cycle;Signal;HPM_P1;HPM_P2
2022/06/25 00:00:34;;;;;;;10.73;5.80;;;21.70;99.90;;;;;;5053421;28;20471;-67
2022/06/25 00:03:01;;;;;;;6.63;5.77;;;21.60;99.90;;;;;;5053429;28;20836;-67
2022/06/25 00:05:30;;;;;;;8.97;6.07;;;21.50;99.90;;;;;;5053389;28;20454;-67
2022/06/25 00:07:57;;;;;;;7.97;6.00;;;21.50;99.90;;;;;;5053303;28;20474;-67
2022/06/25 00:10:24;;;;;;;9.20;6.60;;;21.60;99.90;;;;;;5053550;28;20445;-67
2022/06/25 00:12:51;;;;;;;7.63;5.43;;;21.60;99.90;;;;;;5053278;28;20465;-67
2022/06/25 00:15:18;;;;;;;6.87;5.50;;;21.50;99.90;;;;;;5053243;28;20478;-67
2022/06/25 00:17:45;;;;;;;8.53;6.17;;;21.40;99.90;;;;;;5053037;28;20487;-68
2022/06/25 00:20:13;;;;;;;6.73;6.03;;;21.30;99.90;;;;;;5053210;28;20946;-67
2022/06/25 00:22:41;;;;;;;7.70;6.03;;;21.10;99.90;;;;;;5053251;28;20515;-67
2022/06/25 00:25:09;;;;;;;6.77;5.57;;;21.00;99.90;;;;;;5053055;28;20450;-68
2022/06/25 00:27:36;;;;;;;9.43;5.83;;;21.10;99.90;;;;;;5052842;28;20530;-68
2022/06/25 00:30:04;;;;;;;6.70;5.63;;;20.90;99.90;;;;;;5052714;28;20450;-67
2022/06/25 00:32:31;;;;;;;7.77;5.73;;;21.00;99.90;;;;;;5052705;28;20504;-67
2022/06/25 00:34:58;;;;;;;10.37;6.00;;;20.80;99.90;;;;;;5052608;28;20540;-67
2022/06/25 00:37:25;;;;;;;11.00;5.70;;;20.80;99.90;;;;;;5052913;28;20640;-67
2022/06/25 00:39:53;;;;;;;7.20;6.10;;;20.70;99.90;;;;;;5052833;28;20457;-67
2022/06/25 00:42:21;;;;;;;8.10;5.40;;;20.70;99.90;;;;;;5052572;28;20568;-66
2022/06/25 00:44:48;;;;;;;6.57;5.40;;;20.70;99.90;;;;;;5052615;28;20469;-66
2022/06/25 00:47:15;;;;;;;6.90;5.50;;;20.80;99.90;;;;;;5053694;28;20458;-67
2022/06/25 00:49:43;;;;;;;7.23;5.80;;;20.80;99.90;;;;;;5052631;28;20461;-66
2022/06/25 00:52:13;;;;;;;8.07;5.30;;;20.90;99.90;;;;;;5053470;28;20476;-66
2022/06/25 00:54:45;;;;;;;8.20;6.10;;;20.90;99.90;;;;;;5051520;28;20547;-66
2022/06/25 00:57:18;;;;;;;6.70;5.77;;;20.90;99.90;;;;;;5050915;28;20519;-66
2022/06/25 00:59:49;;;;;;;7.43;6.10;;;21.10;99.90;;;;;;5051488;28;20453;-67
2022/06/25 01:02:17;;;;;;;11.97;6.00;;;21.20;99.90;;;;;;5052016;28;20851;-66
2022/06/25 01:04:44;;;;;;;7.40;5.17;;;21.20;99.90;;;;;;5051274;28;20458;-67
2022/06/25 01:07:11;;;;;;;6.83;5.87;;;21.20;99.90;;;;;;5050608;28;20479;-67
2022/06/25 01:09:40;;;;;;;8.53;5.97;;;21.30;99.90;;;;;;5051775;28;20458;-66
2022/06/25 01:12:08;;;;;;;8.33;6.00;;;21.40;99.90;;;;;;5051928;28;20546;-66
2022/06/25 01:14:36;;;;;;;7.00;5.50;;;21.50;99.90;;;;;;5051898;28;20493;-66
2022/06/25 01:17:06;;;;;;;7.63;6.00;;;21.50;99.90;;;;;;5051568;28;20481;-66
2022/06/25 01:19:34;;;;;;;7.33;6.10;;;21.50;99.90;;;;;;5051938;28;20544;-66
2022/06/25 01:22:04;;;;;;;8.63;6.70;;;21.40;99.90;;;;;;5051857;28;20442;-66
2022/06/25 01:24:32;;;;;;;7.70;6.50;;;21.40;99.90;;;;;;5051763;28;20534;-66
2022/06/25 01:26:59;;;;;;;7.10;6.37;;;21.40;99.90;;;;;;5051696;28;21308;-67
2022/06/25 01:29:26;;;;;;;9.50;8.30;;;21.40;99.90;;;;;;5051914;28;20457;-67
2022/06/25 01:31:53;;;;;;;13.80;7.10;;;21.40;99.90;;;;;;5051740;28;20994;-67
2022/06/25 01:34:20;;;;;;;9.67;8.50;;;21.40;99.90;;;;;;5051530;28;20560;-66
2022/06/25 01:36:47;;;;;;;9.77;8.00;;;21.20;99.90;;;;;;5051649;28;20454;-66
2022/06/25 01:39:16;;;;;;;9.67;8.27;;;21.10;99.90;;;;;;5051819;28;20477;-66
2022/06/25 01:41:43;;;;;;;8.17;7.13;;;21.20;99.90;;;;;;5051552;28;20450;-66
2022/06/25 01:44:10;;;;;;;8.27;7.40;;;21.20;99.90;;;;;;5051602;28;20946;-68
2022/06/25 01:46:37;;;;;;;9.10;8.20;;;21.20;99.90;;;;;;5051193;28;21055;-66
2022/06/25 01:49:04;;;;;;;13.60;8.17;;;21.30;99.90;;;;;;5051315;28;20474;-67
2022/06/25 01:51:31;;;;;;;9.63;8.37;;;21.10;99.90;;;;;;5051437;28;20492;-67
2022/06/25 01:53:58;;;;;;;11.93;8.20;;;21.00;99.90;;;;;;5050969;28;20983;-67
2022/06/25 01:56:26;;;;;;;9.70;7.40;;;21.00;99.90;;;;;;5051383;28;20490;-67
2022/06/25 01:58:53;;;;;;;9.13;8.17;;;21.00;99.90;;;;;;5051226;28;20474;-67
2022/06/25 02:01:20;;;;;;;8.70;7.80;;;21.10;99.90;;;;;;5050809;28;20454;-67
2022/06/25 02:03:47;;;;;;;9.63;7.10;;;21.10;99.90;;;;;;5051049;28;20867;-67
2022/06/25 02:06:15;;;;;;;10.13;7.80;;;21.10;99.90;;;;;;5050991;28;20516;-67
2022/06/25 02:08:42;;;;;;;8.73;6.93;;;21.10;99.90;;;;;;5051081;28;20470;-67
2022/06/25 02:11:10;;;;;;;9.30;7.23;;;21.10;99.90;;;;;;5051150;28;20577;-67
2022/06/25 02:13:39;;;;;;;9.40;7.80;;;21.10;99.90;;;;;;5050851;28;20468;-67
2022/06/25 02:16:07;;;;;;;8.70;7.80;;;20.90;99.90;;;;;;5050472;28;21316;-67
2022/06/25 02:18:34;;;;;;;9.33;7.23;;;20.90;99.90;;;;;;5050748;28;20470;-67
2022/06/25 02:21:01;;;;;;;11.30;6.83;;;20.70;99.90;;;;;;5050711;28;20457;-67
2022/06/25 02:23:28;;;;;;;10.10;7.43;;;20.70;99.90;;;;;;5050960;28;20507;-67
2022/06/25 02:25:55;;;;;;;8.20;7.40;;;20.80;99.90;;;;;;5050832;28;20546;-66
2022/06/25 02:28:22;;;;;;;10.90;7.60;;;20.90;99.90;;;;;;5050722;28;20802;-67
2022/06/25 02:30:50;;;;;;;9.10;7.50;;;21.00;99.90;;;;;;5050411;28;20454;-66
2022/06/25 02:33:19;;;;;;;8.20;7.40;;;21.00;99.90;;;;;;5050261;28;20516;-67
2022/06/25 02:35:46;;;;;;;9.57;7.20;;;21.10;99.90;;;;;;5050122;28;20494;-67
2022/06/25 02:38:13;;;;;;;8.40;6.80;;;20.80;99.90;;;;;;5050504;28;21000;-65
2022/06/25 02:40:41;;;;;;;8.23;6.90;;;20.80;99.90;;;;;;5050362;28;20445;-66
2022/06/25 02:43:08;;;;;;;8.57;7.43;;;20.80;99.90;;;;;;5050545;28;20787;-67
2022/06/25 02:45:35;;;;;;;9.17;7.80;;;20.70;99.90;;;;;;5050407;28;20453;-67
2022/06/25 02:48:04;;;;;;;12.07;7.20;;;20.60;99.90;;;;;;5050112;28;20947;-67
2022/06/25 02:50:31;;;;;;;8.93;7.27;;;20.70;99.90;;;;;;5050357;28;20485;-67
2022/06/25 02:52:58;;;;;;;7.30;6.60;;;20.70;99.90;;;;;;5050203;28;20478;-67
2022/06/25 02:58:54;;;;;;;10.13;7.47;;;20.80;99.90;;;;;;5050500;28;20485;-67
2022/06/25 03:00:57;;;;;;;9.50;7.00;;;20.80;99.90;;;;;;5050068;28;20444;-67
2022/06/25 03:03:26;;;;;;;11.73;6.37;;;20.90;99.90;;;;;;5050420;28;20503;-67
2022/06/25 03:05:53;;;;;;;7.40;6.43;;;21.00;99.90;;;;;;5050439;28;20450;-67
2022/06/25 03:08:20;;;;;;;10.53;7.17;;;21.10;99.90;;;;;;5049934;28;20895;-67
2022/06/25 03:10:47;;;;;;;7.87;7.07;;;21.10;99.90;;;;;;5049672;28;20465;-67
2022/06/25 03:13:14;;;;;;;7.80;6.80;;;21.10;99.90;;;;;;5049030;28;20458;-67
2022/06/25 03:15:41;;;;;;;8.50;6.83;;;21.20;99.90;;;;;;5049290;28;20493;-67
2022/06/25 03:18:08;;;;;;;10.20;7.03;;;21.10;99.90;;;;;;5049109;28;20541;-68
2022/06/25 03:20:37;;;;;;;7.40;6.03;;;21.20;99.90;;;;;;5049931;28;20454;-67
2022/06/25 03:23:04;;;;;;;7.13;6.20;;;21.30;99.90;;;;;;5049892;28;20458;-67
2022/06/25 03:25:31;;;;;;;10.40;7.20;;;21.40;99.90;;;;;;5049906;28;20448;-67
2022/06/25 03:27:59;;;;;;;7.73;6.60;;;21.40;99.90;;;;;;5049948;28;20478;-67
2022/06/25 03:30:26;;;;;;;11.27;7.20;;;21.30;99.90;;;;;;5050839;28;20458;-67
2022/06/25 03:32:53;;;;;;;7.70;6.20;;;21.40;99.90;;;;;;5054059;28;20460;-67
2022/06/25 03:35:20;;;;;;;9.13;6.97;;;21.40;99.90;;;;;;5053594;28;20489;-68
2022/06/25 03:37:49;;;;;;;10.50;7.73;;;21.40;99.90;;;;;;5053944;28;20477;-67
2022/06/25 03:40:16;;;;;;;8.70;7.07;;;21.50;99.90;;;;;;5054143;28;20441;-67
2022/06/25 03:42:44;;;;;;;10.23;8.00;;;21.50;99.90;;;;;;5053827;28;20453;-67
2022/06/25 03:45:11;;;;;;;11.87;8.07;;;21.40;99.90;;;;;;5052930;28;20449;-68
2022/06/25 03:47:38;;;;;;;8.80;7.00;;;21.40;99.90;;;;;;5053188;28;21032;-68
2022/06/25 03:50:06;;;;;;;8.90;8.00;;;21.50;99.90;;;;;;5053320;28;20946;-67
2022/06/25 03:52:33;;;;;;;9.73;7.20;;;21.60;99.90;;;;;;5053401;28;20500;-67
2022/06/25 03:55:01;;;;;;;8.40;7.17;;;21.70;99.90;;;;;;5053332;28;20453;-67
2022/06/25 03:57:28;;;;;;;7.90;7.10;;;21.80;99.90;;;;;;5053506;28;20974;-67
2022/06/25 03:59:55;;;;;;;11.83;7.67;;;21.70;99.90;;;;;;5053742;28;20462;-66
2022/06/25 04:02:22;;;;;;;9.77;7.40;;;21.60;99.90;;;;;;5053352;28;20501;-66
2022/06/25 04:04:49;;;;;;;10.37;8.37;;;21.70;99.90;;;;;;5053060;28;20449;-67
2022/06/25 04:07:16;;;;;;;9.17;7.50;;;21.70;99.90;;;;;;5052775;28;20465;-67
2022/06/25 04:09:43;;;;;;;8.57;7.67;;;21.70;99.90;;;;;;5052748;28;20852;-67
2022/06/25 04:12:12;;;;;;;9.00;8.00;;;21.70;99.90;;;;;;5033168;28;20438;-66
2022/06/25 04:14:40;;;;;;;8.00;7.20;;;21.70;99.90;;;;;;5051807;28;21006;-67
2022/06/25 04:17:07;;;;;;;9.13;6.90;;;21.70;99.90;;;;;;5052396;28;20596;-67
2022/06/25 04:19:39;;;;;;;9.73;8.73;;;21.70;99.90;;;;;;5052408;28;20487;-67
2022/06/25 04:22:07;;;;;;;11.00;9.00;;;21.70;99.90;;;;;;5052718;28;20458;-67
2022/06/25 04:24:35;;;;;;;8.77;7.33;;;21.80;99.90;;;;;;5052440;28;20456;-67
2022/06/25 04:27:02;;;;;;;8.73;7.70;;;21.80;99.90;;;;;;5052607;28;20480;-67
2022/06/25 04:29:30;;;;;;;8.73;7.90;;;21.80;99.90;;;;;;5052144;28;20540;-67
2022/06/25 04:31:57;;;;;;;8.20;7.40;;;22.00;99.90;;;;;;5051739;28;20546;-67
2022/06/25 04:34:24;;;;;;;10.80;8.27;;;22.00;99.90;;;;;;5051356;28;20458;-67
2022/06/25 04:36:51;;;;;;;11.60;8.97;;;22.00;99.90;;;;;;5052215;28;20481;-67
2022/06/25 04:39:18;;;;;;;9.50;7.30;;;22.10;99.90;;;;;;5051774;28;20457;-67
2022/06/25 04:41:46;;;;;;;10.13;9.13;;;22.10;99.90;;;;;;5050807;28;20458;-67
2022/06/25 04:44:15;;;;;;;12.60;10.30;;;22.20;99.90;;;;;;5051674;28;20539;-67
2022/06/25 04:46:43;;;;;;;12.40;9.37;;;22.20;99.90;;;;;;5052098;28;20458;-67
2022/06/25 04:49:10;;;;;;;12.77;8.77;;;22.20;99.90;;;;;;5048559;28;20465;-67
2022/06/25 04:51:37;;;;;;;10.23;9.23;;;22.20;99.90;;;;;;5052465;28;20457;-68
2022/06/25 04:54:05;;;;;;;10.70;9.60;;;22.10;99.90;;;;;;5051824;28;20485;-67
2022/06/25 04:56:32;;;;;;;15.23;10.87;;;22.10;99.90;;;;;;5052094;28;20523;-66
2022/06/25 04:59:00;;;;;;;12.80;10.60;;;22.10;99.90;;;;;;5052207;28;20470;-68
2022/06/25 05:01:27;;;;;;;11.13;9.30;;;22.20;99.90;;;;;;5052018;28;20504;-67
2022/06/25 05:03:55;;;;;;;12.63;9.90;;;22.20;99.90;;;;;;5051848;28;20907;-67
2022/06/25 05:06:22;;;;;;;12.17;10.87;;;22.20;99.90;;;;;;5052163;28;20442;-67
2022/06/25 05:08:49;;;;;;;12.73;11.50;;;22.30;99.90;;;;;;5051843;28;20481;-66
2022/06/25 05:11:17;;;;;;;12.83;11.17;;;22.40;99.90;;;;;;5052095;28;20457;-67
2022/06/25 05:13:44;;;;;;;12.30;9.80;;;22.40;99.90;;;;;;5051679;28;20465;-74
2022/06/25 05:16:11;;;;;;;13.77;10.77;;;22.40;99.90;;;;;;5051004;28;20504;-72
2022/06/25 05:18:39;;;;;;;13.10;9.97;;;22.40;99.90;;;;;;5050368;28;20844;-67
2022/06/25 05:21:07;;;;;;;12.77;10.97;;;22.40;99.90;;;;;;5051931;28;21061;-67
2022/06/25 05:23:34;;;;;;;12.87;10.30;;;22.50;99.90;;;;;;5049195;28;20454;-67
2022/06/25 05:26:01;;;;;;;11.43;10.37;;;22.60;99.90;;;;;;5050018;28;20454;-66
2022/06/25 05:28:28;;;;;;;14.00;10.63;;;22.70;99.90;;;;;;5050193;28;20470;-67
2022/06/25 05:30:55;;;;;;;11.43;9.67;;;23.00;99.90;;;;;;5048936;28;20887;-65
2022/06/25 05:33:22;;;;;;;10.40;9.37;;;23.10;99.90;;;;;;5048222;28;20452;-66
2022/06/25 05:35:49;;;;;;;11.50;10.30;;;23.00;99.90;;;;;;5049214;28;20485;-67
2022/06/25 05:38:18;;;;;;;10.77;9.67;;;23.00;99.90;;;;;;5048951;28;20539;-67
2022/06/25 05:40:45;;;;;;;12.00;10.80;;;23.10;99.90;;;;;;5049113;28;20465;-68
2022/06/25 05:43:12;;;;;;;11.93;10.07;;;23.20;99.90;;;;;;5049864;28;20465;-69
2022/06/25 05:45:39;;;;;;;12.50;11.10;;;23.30;99.90;;;;;;5049671;28;20458;-67
2022/06/25 05:48:07;;;;;;;12.20;10.60;;;23.10;99.90;;;;;;5049938;28;20466;-68
2022/06/25 05:50:35;;;;;;;12.60;10.30;;;23.20;99.90;;;;;;5051235;28;20795;-66
2022/06/25 05:53:02;;;;;;;11.47;10.27;;;23.30;99.90;;;;;;5050211;28;20994;-67
2022/06/25 05:55:31;;;;;;;14.27;10.20;;;23.40;99.90;;;;;;5050758;28;20450;-67
2022/06/25 05:57:59;;;;;;;11.20;10.10;;;23.40;99.90;;;;;;5050549;28;20879;-71
2022/06/25 06:00:26;;;;;;;12.03;10.73;;;23.50;99.90;;;;;;5050126;28;20458;-67
2022/06/25 06:02:53;;;;;;;14.60;10.87;;;23.60;99.90;;;;;;5050019;28;20466;-70
2022/06/25 06:05:20;;;;;;;15.80;10.93;;;23.60;99.90;;;;;;5050021;28;21084;-69
2022/06/25 06:07:47;;;;;;;12.43;10.57;;;23.80;99.90;;;;;;5049882;28;20840;-65
2022/06/25 06:10:14;;;;;;;15.50;10.27;;;23.90;99.90;;;;;;5050073;28;20450;-67
2022/06/25 06:12:43;;;;;;;12.27;10.53;;;24.10;99.90;;;;;;5050266;28;20453;-66
2022/06/25 06:15:11;;;;;;;13.47;10.47;;;24.10;99.90;;;;;;5030847;28;20473;-66
2022/06/25 06:17:38;;;;;;;12.87;9.50;;;24.00;99.90;;;;;;5037871;28;20486;-67
2022/06/25 06:20:07;;;;;;;12.97;9.67;;;24.20;99.90;;;;;;5050877;28;20458;-65
2022/06/25 06:22:34;;;;;;;11.00;9.90;;;24.40;99.90;;;;;;5050264;28;20446;-66
2022/06/25 06:25:02;;;;;;;10.40;8.37;;;24.40;99.90;;;;;;5050425;28;20482;-66
2022/06/25 06:27:29;;;;;;;10.67;9.57;;;24.50;99.90;;;;;;5048865;28;20470;-65
2022/06/25 06:29:57;;;;;;;10.50;8.63;;;24.70;99.90;;;;;;5049830;28;20454;-66
2022/06/25 06:32:24;;;;;;;9.47;8.33;;;24.80;99.90;;;;;;5050419;28;20567;-65
2022/06/25 06:34:51;;;;;;;9.93;8.33;;;25.00;99.90;;;;;;5050112;28;20457;-66
2022/06/25 06:37:18;;;;;;;12.90;9.23;;;25.00;99.90;;;;;;5050058;28;20482;-66
2022/06/25 06:39:45;;;;;;;11.07;9.60;;;24.80;99.90;;;;;;5049364;28;20450;-66
2022/06/25 06:42:13;;;;;;;11.13;9.03;;;24.70;99.90;;;;;;5049576;28;20504;-65
2022/06/25 06:44:40;;;;;;;8.57;7.70;;;24.50;99.90;;;;;;5049916;28;20803;-67
2022/06/25 06:47:08;;;;;;;9.27;8.37;;;24.60;99.90;;;;;;5049863;28;20515;-65
2022/06/25 06:49:35;;;;;;;8.73;7.83;;;24.80;99.90;;;;;;5049712;28;20883;-65
2022/06/25 06:52:02;;;;;;;8.53;7.40;;;25.10;99.90;;;;;;5050446;28;20454;-66
2022/06/25 06:54:29;;;;;;;10.73;8.80;;;25.30;99.90;;;;;;5049143;28;20482;-67
2022/06/25 06:56:56;;;;;;;11.63;8.00;;;25.60;99.90;;;;;;5049375;28;20508;-66
2022/06/25 06:59:24;;;;;;;11.63;7.20;;;25.80;99.90;;;;;;5049481;28;20450;-65
2022/06/25 07:01:51;;;;;;;8.37;6.70;;;25.90;99.90;;;;;;5049429;28;20458;-65
2022/06/25 07:04:19;;;;;;;11.50;7.07;;;26.20;99.90;;;;;;5049563;28;20980;-65
2022/06/25 07:06:46;;;;;;;7.80;6.97;;;26.30;99.90;;;;;;5048878;28;20445;-66
2022/06/25 07:09:13;;;;;;;7.67;6.43;;;26.20;99.90;;;;;;5049972;28;20474;-67
2022/06/25 07:11:40;;;;;;;9.67;6.20;;;26.50;99.90;;;;;;5049460;28;20939;-65
2022/06/25 07:14:07;;;;;;;10.93;6.27;;;26.40;99.90;;;;;;5049337;28;20970;-65
2022/06/25 07:16:35;;;;;;;11.37;6.10;;;26.70;99.90;;;;;;5049544;28;20489;-66
2022/06/25 07:19:04;;;;;;;7.77;6.27;;;27.00;99.90;;;;;;5046086;28;20498;-65
2022/06/25 07:21:33;;;;;;;6.77;6.07;;;27.10;99.90;;;;;;5045870;28;20542;-66
2022/06/25 07:24:00;;;;;;;7.70;6.30;;;27.20;99.90;;;;;;5049766;28;20454;-66
2022/06/25 07:26:27;;;;;;;6.43;5.70;;;27.30;99.90;;;;;;5049900;28;20454;-66
2022/06/25 07:28:55;;;;;;;7.37;6.10;;;27.60;99.90;;;;;;5049629;28;20801;-66
2022/06/25 07:31:22;;;;;;;7.50;6.10;;;27.90;99.90;;;;;;5049361;28;20546;-66
2022/06/25 07:33:50;;;;;;;10.23;6.80;;;27.90;99.90;;;;;;5049696;28;20453;-65
2022/06/25 07:36:17;;;;;;;7.80;7.00;;;27.90;99.90;;;;;;5047795;28;21001;-65
2022/06/25 07:38:47;;;;;;;10.07;7.47;;;28.20;99.90;;;;;;5049520;28;20470;-65
2022/06/25 07:41:14;;;;;;;7.50;6.30;;;28.30;99.90;;;;;;5049465;28;20490;-65
2022/06/25 07:43:41;;;;;;;8.73;6.50;;;28.40;99.90;;;;;;5049353;28;20450;-66
2022/06/25 07:46:09;;;;;;;10.20;7.07;;;28.30;99.90;;;;;;5049853;28;20877;-65
2022/06/25 07:48:36;;;;;;;11.40;7.50;;;28.40;99.90;;;;;;5042923;28;20486;-66
2022/06/25 07:53:49;;;;;;;8.83;6.83;;;28.50;99.90;;;;;;5034642;28;21407;-65
2022/06/25 07:56:17;;;;;;;9.17;7.70;;;28.50;99.90;;;;;;5048969;28;20980;-66
2022/06/25 07:58:44;;;;;;;10.23;7.10;;;28.60;99.90;;;;;;5048759;28;20531;-66
2022/06/25 08:01:11;;;;;;;8.27;7.37;;;28.80;99.90;;;;;;5048826;28;20450;-66
2022/06/25 08:03:38;;;;;;;10.97;7.80;;;29.00;99.90;;;;;;5049614;28;20453;-67
2022/06/25 08:06:05;;;;;;;11.40;8.13;;;29.10;99.90;;;;;;5048846;28;20453;-65
2022/06/25 08:08:32;;;;;;;10.03;7.60;;;29.00;99.90;;;;;;5049301;28;20488;-67
2022/06/25 08:11:01;;;;;;;7.90;7.10;;;29.20;99.90;;;;;;5049091;28;20457;-67
2022/06/25 08:13:28;;;;;;;11.93;7.57;;;29.30;99.90;;;;;;5048860;28;20454;-68
2022/06/25 08:15:55;;;;;;;9.27;7.90;;;29.50;99.90;;;;;;5048107;28;20851;-67
2022/06/25 08:18:22;;;;;;;10.10;8.20;;;29.70;99.90;;;;;;5050609;28;20568;-68
2022/06/25 08:20:49;;;;;;;9.73;7.60;;;29.60;99.90;;;;;;5052093;28;20481;-70
2022/06/25 08:23:17;;;;;;;8.93;8.00;;;29.50;99.90;;;;;;5052525;28;20555;-67
2022/06/25 08:25:44;;;;;;;10.80;7.40;;;29.60;99.90;;;;;;5054013;28;20524;-66
2022/06/25 08:28:12;;;;;;;8.40;7.17;;;29.70;99.90;;;;;;5040019;28;20463;-66
2022/06/25 08:30:42;;;;;;;14.90;8.60;;;29.80;99.90;;;;;;5032920;28;20874;-68
2022/06/25 08:33:09;;;;;;;13.13;8.43;;;29.80;99.90;;;;;;5032950;28;20458;-69
2022/06/25 08:35:36;;;;;;;10.40;8.43;;;29.90;99.90;;;;;;5032870;28;20467;-69
2022/06/25 08:38:04;;;;;;;12.37;7.97;;;30.10;99.90;;;;;;5032308;28;20991;-66
2022/06/25 08:40:31;;;;;;;11.40;7.77;;;30.00;99.90;;;;;;5046535;28;20488;-62
2022/06/25 08:42:59;;;;;;;10.27;9.27;;;30.10;99.90;;;;;;5052724;28;20454;-72
2022/06/25 08:45:28;;;;;;;10.93;8.87;;;30.20;99.90;;;;;;5051118;28;20528;-71
2022/06/25 08:47:59;;;;;;;9.57;8.27;;;30.10;99.90;;;;;;5052592;28;20587;-71
2022/06/25 08:50:26;;;;;;;10.30;9.17;;;30.20;99.90;;;;;;5050771;28;20950;-72
2022/06/25 08:52:55;;;;;;;10.67;8.60;;;30.50;99.90;;;;;;5051247;28;20465;-70
2022/06/25 08:55:29;;;;;;;10.33;8.70;;;30.40;99.90;;;;;;5051774;28;20449;-69
2022/06/25 08:57:57;;;;;;;11.33;10.13;;;30.10;99.70;;;;;;5052162;28;20493;-71
2022/06/25 09:00:25;;;;;;;9.73;8.57;;;30.10;99.90;;;;;;5052008;28;20453;-70
2022/06/25 09:02:54;;;;;;;15.03;9.60;;;30.20;99.90;;;;;;5052032;28;20442;-68
2022/06/25 09:05:26;;;;;;;9.93;9.00;;;30.30;99.20;;;;;;5049384;28;20446;-69
2022/06/25 09:07:55;;;;;;;11.07;8.83;;;30.40;98.90;;;;;;5050739;28;20498;-66
2022/06/25 09:10:24;;;;;;;10.00;8.93;;;30.60;99.50;;;;;;5050565;28;20453;-66
2022/06/25 09:12:52;;;;;;;13.70;9.80;;;30.60;99.90;;;;;;5050474;28;20990;-66
2022/06/25 09:15:20;;;;;;;16.10;10.00;;;30.80;99.50;;;;;;5049759;28;20474;-67
2022/06/25 09:17:48;;;;;;;12.57;10.13;;;31.00;98.00;;;;;;5050032;28;20494;-66
2022/06/25 09:20:18;;;;;;;14.03;9.83;;;31.10;98.10;;;;;;5051812;28;20519;-66
2022/06/25 09:22:57;;;;;;;14.53;8.90;;;31.20;98.20;;;;;;5051944;28;20916;-67
2022/06/25 09:25:26;;;;;;;14.23;9.60;;;31.50;97.70;;;;;;5051946;28;20545;-66
2022/06/25 09:27:53;;;;;;;15.83;9.80;;;31.80;96.50;;;;;;5051176;28;20870;-66
2022/06/25 09:30:22;;;;;;;14.20;9.17;;;31.80;94.50;;;;;;5051389;28;20937;-67
2022/06/25 09:32:50;;;;;;;12.00;10.40;;;31.90;94.40;;;;;;5051904;28;21250;-67
2022/06/25 09:35:32;;;;;;;13.03;10.03;;;32.00;94.20;;;;;;5051826;28;20476;-67
2022/06/25 09:38:04;;;;;;;13.20;10.73;;;32.20;95.30;;;;;;5051049;28;21009;-67
2022/06/25 09:40:31;;;;;;;13.53;10.33;;;32.20;95.70;;;;;;5051420;28;20461;-67
2022/06/25 09:42:59;;;;;;;16.87;10.00;;;32.30;94.90;;;;;;5051432;28;20942;-67
2022/06/25 09:45:27;;;;;;;10.63;9.53;;;32.40;94.90;;;;;;5051524;28;20454;-67
2022/06/25 09:47:56;;;;;;;15.30;10.00;;;32.50;94.90;;;;;;5051255;28;20473;-67
2022/06/25 09:50:25;;;;;;;11.77;10.60;;;32.20;94.20;;;;;;5051510;28;20553;-67
2022/06/25 09:52:56;;;;;;;13.30;10.40;;;32.10;93.70;;;;;;5050874;28;20446;-67
2022/06/25 09:55:25;;;;;;;14.40;10.23;;;32.10;94.40;;;;;;5051233;28;20456;-66
2022/06/25 09:57:54;;;;;;;10.90;9.80;;;32.10;94.60;;;;;;5051054;28;20563;-67
2022/06/25 10:00:23;;;;;;;13.30;9.80;;;32.10;93.10;;;;;;5051351;28;20512;-66
2022/06/25 10:02:51;;;;;;;11.50;9.00;;;32.00;92.90;;;;;;5051132;28;20495;-68
2022/06/25 10:05:22;;;;;;;12.60;9.90;;;32.10;93.00;;;;;;5051015;28;20859;-66
2022/06/25 10:08:01;;;;;;;14.63;10.20;;;32.00;93.20;;;;;;5050720;28;20484;-66
2022/06/25 10:10:31;;;;;;;11.70;9.60;;;32.20;93.60;;;;;;5050898;28;20473;-67
2022/06/25 10:12:58;;;;;;;19.57;10.67;;;32.40;94.70;;;;;;5051008;28;20508;-68
2022/06/25 10:15:25;;;;;;;12.63;8.53;;;32.50;92.60;;;;;;5050844;28;20465;-67
2022/06/25 10:17:53;;;;;;;14.40;10.50;;;32.50;92.10;;;;;;5050396;28;20539;-68
2022/06/25 10:20:22;;;;;;;10.87;9.27;;;32.40;91.60;;;;;;5050888;28;20458;-68
2022/06/25 10:22:52;;;;;;;13.13;9.00;;;32.60;91.50;;;;;;5051056;28;20783;-67
2022/06/25 10:25:22;;;;;;;14.10;9.13;;;32.50;91.30;;;;;;5051535;28;20902;-66
2022/06/25 10:27:50;;;;;;;12.80;9.57;;;32.50;91.10;;;;;;5050798;28;20501;-66
2022/06/25 10:30:36;;;;;;;12.67;8.67;;;32.60;91.30;;;;;;5050690;28;20740;-66
2022/06/25 10:33:03;;;;;;;10.03;8.73;;;32.50;90.80;;;;;;5050687;28;20532;-67
2022/06/25 10:35:33;;;;;;;14.87;9.73;;;32.60;90.90;;;;;;5050505;28;20473;-71
2022/06/25 10:38:03;;;;;;;13.77;9.23;;;32.70;89.60;;;;;;5049860;28;20592;-66
2022/06/25 10:40:32;;;;;;;13.90;9.97;;;32.70;90.20;;;;;;5050235;28;20504;-68
2022/06/25 10:43:03;;;;;;;16.53;9.30;;;32.80;90.50;;;;;;5049680;28;20536;-70
2022/06/25 10:45:46;;;;;;;12.93;9.10;;;33.00;89.70;;;;;;5049501;28;20900;-67
2022/06/25 10:48:13;;;;;;;12.83;8.60;;;33.20;89.40;;;;;;5037367;28;20529;-72
2022/06/25 10:50:48;;;;;;;11.50;8.80;;;33.40;90.20;;;;;;5049352;28;20451;-70
2022/06/25 10:53:24;;;;;;;11.87;9.17;;;33.50;90.20;;;;;;5049779;28;20527;-73
2022/06/25 10:56:16;;;;;;;14.73;9.30;;;33.70;90.10;;;;;;5050059;28;20473;-71
2022/06/25 10:58:46;;;;;;;12.50;8.33;;;33.90;89.30;;;;;;5030154;28;20641;-68
2022/06/25 11:01:35;;;;;;;11.37;8.70;;;33.90;88.20;;;;;;5033055;28;20844;-67
2022/06/25 11:04:07;;;;;;;14.63;9.53;;;34.20;88.80;;;;;;5046338;28;20466;-68
2022/06/25 11:06:38;;;;;;;9.83;8.60;;;34.40;88.80;;;;;;5049691;28;20481;-66
2022/06/25 11:09:13;;;;;;;10.87;8.20;;;34.40;85.40;;;;;;5049706;28;20810;-67
2022/06/25 11:11:42;;;;;;;13.73;9.20;;;34.50;86.40;;;;;;5049820;28;20456;-68
2022/06/25 11:14:22;;;;;;;12.30;8.70;;;34.50;84.50;;;;;;5048750;28;20446;-68
2022/06/25 11:16:50;;;;;;;14.20;8.83;;;34.60;84.50;;;;;;5049030;28;20481;-68
2022/06/25 11:19:17;;;;;;;12.63;9.10;;;34.60;84.40;;;;;;5049358;28;20473;-65
2022/06/25 11:21:46;;;;;;;16.40;8.87;;;34.80;82.70;;;;;;5049115;28;20454;-67
2022/06/25 11:24:21;;;;;;;14.10;9.40;;;35.00;82.60;;;;;;5049593;28;20446;-67
2022/06/25 11:29:38;;;;;;;12.30;8.60;;;35.20;78.00;;;;;;5048989;28;20515;-68
2022/06/25 11:32:06;;;;;;;12.73;9.00;;;35.00;79.40;;;;;;5046437;28;20446;-69
2022/06/25 11:34:34;;;;;;;12.13;8.90;;;34.50;78.70;;;;;;5049384;28;20549;-69
2022/06/25 11:37:07;;;;;;;11.40;8.60;;;34.50;80.20;;;;;;5049263;28;20528;-70
2022/06/25 11:39:37;;;;;;;16.43;8.93;;;34.30;82.00;;;;;;5049305;28;20493;-69
2022/06/25 11:42:08;;;;;;;12.83;8.90;;;34.50;81.70;;;;;;5049673;28;21134;-69
2022/06/25 11:44:45;;;;;;;12.40;8.63;;;34.80;79.60;;;;;;5049534;28;20477;-69
2022/06/25 11:47:14;;;;;;;17.23;8.80;;;34.80;80.70;;;;;;5048958;28;20449;-68
2022/06/25 11:49:44;;;;;;;20.67;9.63;;;34.80;82.90;;;;;;5048281;28;20454;-68
2022/06/25 11:52:11;;;;;;;11.63;8.50;;;35.00;83.10;;;;;;5030964;28;20838;-67
2022/06/25 11:54:41;;;;;;;13.77;9.30;;;34.80;81.40;;;;;;5040041;28;20486;-67
2022/06/25 11:57:12;;;;;;;14.67;9.10;;;34.60;81.60;;;;;;5053213;28;20453;-68
2022/06/25 11:59:40;;;;;;;14.43;7.97;;;34.60;83.20;;;;;;5053252;28;20994;-68
2022/06/25 12:02:08;;;;;;;13.03;9.53;;;34.40;82.20;;;;;;5052169;28;20815;-67
2022/06/25 12:04:51;;;;;;;14.97;10.77;;;34.10;83.50;;;;;;5052496;28;21065;-67
2022/06/25 12:07:19;;;;;;;15.23;9.07;;;34.00;81.90;;;;;;5052109;28;20484;-67
2022/06/25 12:09:48;;;;;;;11.00;8.47;;;34.20;84.00;;;;;;5051960;28;20499;-65
2022/06/25 12:12:17;;;;;;;14.63;8.03;;;34.20;83.10;;;;;;5053001;28;20454;-67
2022/06/25 12:14:45;;;;;;;11.90;8.40;;;34.10;83.40;;;;;;5052082;28;20488;-68
2022/06/25 12:17:12;;;;;;;14.33;8.23;;;34.20;83.70;;;;;;5052700;28;20454;-67
2022/06/25 12:19:46;;;;;;;15.40;8.90;;;34.10;83.10;;;;;;5052871;28;21148;-67
2022/06/25 12:22:23;;;;;;;14.03;7.93;;;34.10;83.70;;;;;;5052878;28;20483;-70
2022/06/25 12:24:52;;;;;;;12.67;8.63;;;33.70;83.20;;;;;;5051581;28;21237;-70
2022/06/25 12:27:19;;;;;;;11.10;8.40;;;33.80;85.10;;;;;;5045566;28;20458;-69
2022/06/25 12:29:49;;;;;;;10.70;8.37;;;34.20;85.60;;;;;;5052393;28;20962;-72
2022/06/25 12:32:16;;;;;;;14.30;8.23;;;34.30;83.80;;;;;;5051803;28;20544;-73
2022/06/25 12:34:48;;;;;;;12.03;9.00;;;34.50;84.90;;;;;;5052256;28;20458;-74
2022/06/25 12:37:28;;;;;;;11.83;9.10;;;34.50;84.60;;;;;;5052274;28;20525;-74
2022/06/25 12:39:59;;;;;;;10.23;8.20;;;34.60;85.90;;;;;;5052297;28;20485;-72
2022/06/25 12:42:28;;;;;;;12.63;10.23;;;34.60;83.40;;;;;;5052645;28;20462;-72
2022/06/25 12:44:56;;;;;;;9.90;7.37;;;34.40;84.90;;;;;;5052632;28;20945;-73
2022/06/25 12:47:23;;;;;;;12.77;6.00;;;34.10;83.00;;;;;;5052028;28;20450;-70
2022/06/25 12:49:52;;;;;;;12.47;6.40;;;33.80;80.80;;;;;;5052162;28;20531;-70
2022/06/25 12:52:20;;;;;;;14.57;7.30;;;33.30;79.20;;;;;;5050737;28;20449;-74